Terminal Aerodrome Forecast
Issued by NWS

Current Version | Previous Version | Graphics & Text | Print | Product List | Glossary On
Versions: 1 2 3 4 5 6 7 8 9 10 11 12 13 14 15
000
FTUS41 KPBZ 191722
TAFHLG
TAF
KHLG 191722Z 1918/2018 31012G30KT P6SM OVC025
     FM200200 32008G28KT P6SM SCT025
     FM200600 32013KT P6SM FEW025=

USA.gov is the U.S. government's official web portal to all federal, state and local government web resources and services.